Latest Coastal Weather Observations for Hobart Airport

IDT60701

Issued at 6:02 am EST Wednesday 4 May 2016 (issued every 10 minutes, with the page automatically refreshed every 10 minutes)

About coastal observations | Map of coastal stations | Coastal observations for TAS | Marine services | Other Formats
Station Details ID: 094008 Name: HOBART AIRPORT Lat: -42.83 Lon: 147.50 Height: 4.0 m
Data from the previous 72 hours. | See also: Recent months at Hobart Airport
Date/Time
EST
Temp

°C
Wind Pressure Rain
since 9am
mm
Weather Cloud Vis
km
Sea
Height
m
Swell
Dir
 
Speed
knots
Gust
knots
hPa Trend Height
m
Period
s
Dir
04/05:30am 6.9 NW 11 14 1002.5 - 2.2 - Mostly clear 10 - - - -
04/05:00am 6.7 NW 12 16 1001.6 - 2.2 - Mostly clear 10 - - - -
04/04:30am 7.1 NNW 11 17 1000.8 - 2.2 - Mostly clear 10 - - - -
04/04:00am 6.9 NW 15 20 1000.2 - 2.2 - Mostly clear 10 - - - -
04/03:30am 7.2 NW 13 19 999.9 - 2.2 - Mostly clear 10 - - - -
04/03:00am 6.8 WNW 14 19 999.1 R 2.2 Fine Mostly clear 40 - - - -
04/02:30am 6.6 NW 14 19 999.1 - 2.2 - - 10 - - - -
04/02:00am 6.7 NW 15 20 998.4 - 2.2 - Mostly clear 10 - - - -
04/01:30am 6.7 NNW 13 19 998.3 - 2.2 - - 10 - - - -
04/01:00am 7.2 NNW 8 16 997.8 - 2.2 - Mostly clear 10 - - - -
04/12:30am 7.1 NNW 8 11 998.2 - 2.2 Showers Mostly clear 10 - - - -
04/12:00am 6.5 N 4 5 997.7 R 2.2 Fine Partly cloudy 40 - - - -
 
Date/Time
EST
Temp

°C
Wind Pressure Rain
since 9am
mm
Weather Cloud Vis
km
Sea
Height
m
Swell
Dir
 
Speed
knots
Gust
knots
hPa Trend Height
m
Period
s
Dir
03/11:30pm 7.2 NW 7 10 997.3 - 2.2 - Partly cloudy 10 - - - -
03/11:00pm 7.3 NW 9 14 996.9 - 2.2 - Mostly clear 10 - - - -
03/10:30pm 8.1 W 2 11 996.4 - 2.2 Showers Mostly clear 10 - - - -
03/10:00pm 7.4 NW 1 5 995.9 - 2.2 - Mostly clear 10 - - - -
03/09:30pm 7.1 WNW 7 11 995.9 - 2.2 - Mostly clear 10 - - - -
03/09:00pm 8.5 NNW 10 17 994.8 R 2.2 Fine Mostly clear 40 - - - -
03/08:30pm 8.2 NNW 11 16 994.4 - 2.2 - Mostly clear 10 - - - -
03/08:00pm 8.7 NNW 11 15 994.1 - 2.2 - Mostly clear 10 - - - -
03/07:30pm 9.2 NW 14 19 993.4 - 2.2 - Mostly clear 10 - - - -
03/07:00pm 9.4 NW 16 20 993.2 - 2.2 - Mostly clear 10 - - - -
03/06:30pm 9.8 NNW 14 18 992.1 - 2.2 - Mostly clear 10 - - - -
03/06:00pm 10.7 NW 14 20 991.7 R 2.2 Fine Mostly cloudy 35 - - - -
03/05:30pm 10.9 NNW 13 20 990.4 - 2.2 - Mostly clear 10 - - - -
03/05:18pm 11.1 NNW 16 26 990.5 - 2.2 - Mostly clear 10 - - - -
03/05:00pm 11.3 NNW 13 21 990.4 - 2.2 - Mostly clear 10 - - - -
03/04:30pm 11.4 NNE 4 5 989.1 - 2.2 - Mostly clear 10 - - - -
03/04:00pm 11.5 NNW 7 9 989.2 - 2.2 - Mostly clear 10 - - - -
03/03:30pm 11.9 NNW 7 10 988.7 - 2.2 - Partly cloudy 10 - - - -
03/03:00pm 11.8 W 8 10 988.3 F 2.2 Distant precip. Mostly cloudy 35 - - - -
03/02:30pm 12.6 SW 7 9 987.6 - 2.2 Showers Mostly clear 10 - - - -
03/02:00pm 12.3 W 6 8 988.0 - 1.8 - Mostly clear 10 - - - -
03/01:30pm 12.5 NNW 6 9 987.7 - 1.8 - Partly cloudy 10 - - - -
03/01:00pm 12.2 N 4 7 987.1 - 1.8 - Mostly clear 10 - - - -
03/12:30pm 12.0 NNE 4 6 988.2 - 1.8 - Mostly clear 10 - - - -
03/12:00pm 11.8 W 6 7 989.4 R 1.6 Distant precip. Cloudy 25 - - - -
03/11:30am 11.4 NW 4 6 988.9 - 1.6 - Mostly clear 10 - - - -
03/11:00am 11.4 NNW 5 7 989.0 - 1.0 - Mostly clear 10 - - - -
03/10:30am 12.3 WNW 12 16 988.9 - 0.2 Rain Mostly clear 9 - - - -
03/10:00am 13.1 WNW 9 12 988.4 - 0.0 - Mostly clear 10 - - - -
03/09:30am 13.0 WNW 9 12 988.7 - 0.0 - Mostly clear 10 - - - -
03/09:00am 13.0 W 15 20 988.8 R 8.8 Rain Mostly cloudy 20 - - - -
03/08:30am 14.5 NNW 9 16 988.9 - 8.8 Rain Mostly clear 10 - - - -
03/08:00am 13.5 N 8 13 988.1 - 8.8 - Mostly clear 10 - - - -
03/07:30am 13.4 NNW 9 14 988.0 - 8.8 Rain Mostly clear 10 - - - -
03/07:00am 13.1 NNW 12 16 987.6 - 8.8 - Mostly clear 10 - - - -
03/06:30am 13.0 NNW 10 15 987.8 - 8.4 Rain Mostly clear 8 - - - -
03/06:00am 13.2 NNW 9 14 987.3 F 5.2 Rain Cloudy 7 - - - -
03/05:37am 13.8 NNW 12 18 987.7 - 2.6 Rain Mostly clear 6 - - - -
03/05:30am 14.4 N 12 18 987.5 - 1.6 Rain Mostly clear 8 - - - -
03/05:00am 14.2 N 12 16 987.4 - 1.2 - Mostly clear 10 - - - -
03/04:30am 14.6 NNW 11 16 988.0 - 1.2 Rain Mostly clear 10 - - - -
03/04:00am 15.5 NNW 13 19 988.2 - 0.0 - Cloudy 10 - - - -
03/03:30am 16.0 N 15 23 987.8 - 0.0 - Mostly cloudy 10 - - - -
03/03:00am 16.5 N 15 22 987.8 F 0.0 Recent precip. Mostly cloudy 35 - - - -
03/02:30am 16.3 N 14 21 988.3 - 0.0 - Partly cloudy 10 - - - -
03/02:07am 17.9 NNW 19 35 988.3 - 0.0 - Partly cloudy 10 - - - -
03/02:00am 17.8 NNW 17 26 988.1 - 0.0 - - 10 - - - -
03/01:30am 17.5 NNW 21 36 988.2 - 0.0 - Mostly clear 10 - - - -
03/01:00am 17.4 NNW 20 33 988.7 - 0.0 - Mostly clear 10 - - - -
03/12:34am 16.8 NNW 17 29 989.1 - 0.0 - Mostly clear 10 - - - -
03/12:30am 17.0 NNW 16 25 989.0 - 0.0 - Mostly clear 10 - - - -
03/12:00am 16.9 NNW 19 32 989.3 F 0.0 Fine Mostly clear 40 - - - -
 
Date/Time
EST
Temp

°C
Wind Pressure Rain
since 9am
mm
Weather Cloud Vis
km
Sea
Height
m
Swell
Dir
 
Speed
knots
Gust
knots
hPa Trend Height
m
Period
s
Dir
02/11:31pm 16.9 NNW 17 27 989.4 - 0.0 - Mostly clear 10 - - - -
02/11:30pm 17.0 NNW 18 27 989.5 - 0.0 - Mostly clear 10 - - - -
02/11:00pm 16.7 NNW 20 33 990.6 - 0.0 - Mostly clear 10 - - - -
02/10:30pm 16.7 NNW 18 40 990.8 - 0.0 - Mostly clear 10 - - - -
02/10:00pm 16.4 NNW 16 27 991.1 - 0.0 - Mostly clear 10 - - - -
02/09:32pm 16.2 N 16 27 991.6 - 0.0 - Mostly clear 10 - - - -
02/09:30pm 16.2 N 16 23 991.7 - 0.0 - Mostly clear 10 - - - -
02/09:00pm 16.0 N 16 29 992.9 F 0.0 Fine Mostly clear 40 - - - -
02/08:33pm 15.9 N 15 27 993.4 - 0.0 - Partly cloudy 10 - - - -
02/08:30pm 16.3 N 13 22 993.6 - 0.0 - Partly cloudy 10 - - - -
02/08:00pm 16.0 N 13 21 994.4 - 0.0 - Mostly cloudy 10 - - - -
02/07:30pm 15.7 N 11 19 994.8 - 0.0 - Mostly cloudy 10 - - - -
02/07:00pm 15.2 N 12 18 994.9 - 0.0 - Mostly cloudy 10 - - - -
02/06:30pm 15.8 N 12 19 995.2 - 0.0 - Partly cloudy 10 - - - -
02/06:00pm 15.8 N 13 19 995.3 F 0.0 Fine Mostly cloudy 40 - - - -
02/05:43pm 15.7 N 15 25 995.4 - 0.0 - Partly cloudy 10 - - - -
02/05:30pm 16.1 NNW 15 23 995.5 - 0.0 - Mostly clear 10 - - - -
02/05:09pm 16.5 N 15 25 995.5 - 0.0 - Mostly clear 10 - - - -
02/05:00pm 16.3 N 15 22 995.6 - 0.0 - Mostly clear 10 - - - -
02/04:30pm 16.5 N 15 24 996.2 - 0.0 - Mostly clear 10 - - - -
02/04:00pm 17.2 NNW 12 20 996.6 - 0.0 - Mostly clear 10 - - - -
02/03:30pm 17.9 NNW 14 21 997.1 - 0.0 - Mostly clear 10 - - - -
02/03:00pm 17.2 NNW 11 16 997.4 F 0.0 Fine Mostly cloudy 40 - - - -
02/02:30pm 17.4 NNW 18 24 997.8 - 0.0 - Partly cloudy 10 - - - -
02/02:07pm 17.7 NNW 19 29 997.6 - 0.0 - Partly cloudy 10 - - - -
02/02:00pm 17.6 NW 19 28 997.6 - 0.0 - Partly cloudy 10 - - - -
02/01:53pm 17.4 NW 18 28 997.9 - 0.0 - Partly cloudy 10 - - - -
02/01:30pm 17.0 NW 17 24 998.5 - 0.0 - Partly cloudy 10 - - - -
02/01:02pm 16.8 NNW 16 26 999.1 - 0.0 - Partly cloudy 10 - - - -
02/01:00pm 16.7 NNW 15 23 999.2 - 0.0 - Partly cloudy 10 - - - -
02/12:49pm 16.3 NW 20 30 999.4 - 0.0 - Partly cloudy 10 - - - -
02/12:30pm 16.1 NW 18 25 999.7 - 0.0 - Partly cloudy 10 - - - -
02/12:02pm 15.6 NNW 17 27 1000.2 - 0.0 - Partly cloudy 10 - - - -
02/12:00pm 15.6 NNW 18 27 1000.3 F 0.0 Fine Partly cloudy 40 - - - -
02/11:44am 15.9 NW 17 27 1000.5 - 0.0 - Mostly clear 10 - - - -
02/11:30am 15.5 NW 15 20 1000.9 - 0.0 - Mostly clear 10 - - - -
02/11:00am 15.8 NNW 15 24 1001.2 - 0.0 - Mostly clear 10 - - - -
02/10:30am 14.3 NNW 13 18 1001.5 - 0.0 - Mostly clear 10 - - - -
02/10:00am 13.7 NNW 12 18 1002.0 - 0.0 - Mostly clear 10 - - - -
02/09:30am 13.1 NNW 9 15 1002.3 - 0.0 - Mostly clear 10 - - - -
02/09:00am 12.3 NNW 7 13 1002.7 F 5.4 Fine Mostly cloudy 35 - - - -
02/08:30am 11.4 N 6 10 1003.0 - 5.4 - Mostly clear 10 - - - -
02/08:00am 11.2 NNW 7 10 1002.9 - 5.4 - Mostly clear 10 - - - -
02/07:30am 10.3 NNW 6 8 1002.9 - 5.4 - Mostly clear 10 - - - -
02/07:00am 10.6 NNW 8 13 1003.0 - 5.4 - Partly cloudy 10 - - - -
02/06:30am 10.5 NNW 10 14 1003.0 - 5.4 - Mostly clear 10 - - - -
02/06:00am 10.2 NNW 10 16 1003.1 R 5.4 Fine Mostly cloudy 35 - - - -
02/05:30am 10.0 NNW 9 15 1003.2 - 5.4 - Mostly cloudy 10 - - - -
02/05:00am 10.3 NNW 13 16 1002.8 - 5.4 - Mostly cloudy 10 - - - -
02/04:30am 9.6 NW 13 17 1002.6 - 5.4 - Partly cloudy 10 - - - -
02/04:00am 10.1 NNW 11 17 1002.4 - 5.4 - Partly cloudy 10 - - - -
02/03:30am 10.2 NNW 10 16 1002.7 - 5.4 - Mostly cloudy 10 - - - -
02/03:00am 10.5 NW 10 17 1002.5 R 5.4 Fine Mostly cloudy 35 - - - -
02/02:30am 10.1 WNW 17 23 1002.3 - 5.4 - Mostly cloudy 10 - - - -
02/02:00am 10.6 WNW 15 23 1002.1 - 5.4 - Partly cloudy 10 - - - -
02/01:30am 10.4 WNW 18 24 1001.9 - 5.4 - Partly cloudy 10 - - - -
02/01:00am 10.3 NW 15 19 1001.9 - 5.4 - Mostly cloudy 10 - - - -
02/12:30am 10.1 NW 17 22 1001.5 - 5.4 - Mostly clear 10 - - - -
02/12:00am 9.6 WNW 19 25 1001.2 R 5.4 Fine Partly cloudy 35 - - - -
 
Date/Time
EST
Temp

°C
Wind Pressure Rain
since 9am
mm
Weather Cloud Vis
km
Sea
Height
m
Swell
Dir
 
Speed
knots
Gust
knots
hPa Trend Height
m
Period
s
Dir
01/11:30pm 10.5 WNW 18 25 1000.7 - 5.4 - Partly cloudy 10 - - - -
01/11:00pm 10.8 WNW 20 29 1000.5 - 5.4 - Partly cloudy 10 - - - -
01/10:55pm 10.9 WNW 17 29 1000.3 - 5.4 - Partly cloudy 10 - - - -
01/10:30pm 11.5 NW 14 19 1000.4 - 5.4 - Mostly cloudy 10 - - - -
01/10:00pm 11.3 WNW 17 25 999.8 - 5.4 - Partly cloudy 10 - - - -
01/09:50pm 11.3 W 20 30 999.5 - 5.4 - Partly cloudy 10 - - - -
01/09:30pm 11.6 WNW 19 27 999.1 - 5.4 - Mostly cloudy 10 - - - -
01/09:08pm 12.2 WNW 18 29 998.7 - 5.4 - Mostly clear 10 - - - -
01/09:00pm 11.9 WNW 15 23 998.4 R 5.4 Fine Mostly cloudy 35 - - - -
01/08:45pm 12.0 W 16 26 998.2 - 5.4 - Mostly clear 10 - - - -
01/08:30pm 12.0 W 14 24 997.9 - 5.4 - Mostly clear 10 - - - -
01/08:00pm 12.1 W 11 18 997.2 - 5.4 - Mostly clear 10 - - - -
01/07:54pm 12.1 W 13 23 996.8 - 5.4 - Mostly clear 10 - - - -
01/07:30pm 12.0 WSW 21 31 995.1 - 5.4 - Mostly clear 10 - - - -
01/07:05pm 12.4 WSW 18 31 994.6 - 5.4 - Mostly clear 10 - - - -
01/07:00pm 12.1 WSW 17 25 994.7 - 5.4 - Mostly clear 10 - - - -
01/06:33pm 12.1 WSW 22 32 993.7 - 5.4 - Mostly clear 10 - - - -
01/06:30pm 11.9 W 23 29 993.6 - 5.4 - Mostly clear 10 - - - -
01/06:03pm 12.3 WSW 20 32 992.2 - 5.4 Rain Mostly clear 10 - - - -
01/06:00pm 12.5 W 19 26 992.1 R 5.2 Rain Mostly cloudy 12 - - - -
01/05:44pm 12.6 W 16 23 991.2 - 4.8 - Mostly clear 10 - - - -
01/05:30pm 12.7 WNW 16 21 990.2 - 4.2 Showers Mostly clear 6 - - - -
01/05:00pm 13.0 WNW 14 20 989.2 - 3.0 - Partly cloudy 7 - - - -
01/04:30pm 15.0 WNW 16 22 988.2 - 2.4 Showers Mostly clear 10 - - - -
01/04:00pm 16.3 NW 12 22 987.7 - 2.4 - Mostly clear 10 - - - -
01/03:30pm 16.3 NNW 7 9 987.7 - 2.4 - Mostly clear 10 - - - -
01/03:00pm 15.9 N 7 8 987.4 F 2.4 Distant precip. Mostly cloudy 35 - - - -
01/02:30pm 15.5 NW 5 7 987.5 - 2.4 - Mostly clear 10 - - - -
01/02:00pm 14.6 N 5 7 988.0 - 2.4 - Mostly clear 10 - - - -
01/01:30pm 14.0 WNW 5 8 988.6 - 2.4 - - 10 - - - -
01/01:00pm 13.8 NNW 6 8 989.3 - 2.4 - Mostly clear 10 - - - -
01/12:30pm 13.8 N 7 13 990.1 - 2.4 - Mostly clear 10 - - - -
01/12:09pm 12.8 NNE 8 26 991.9 - 2.0 Showers Mostly clear 8 - - - -
01/12:06pm 15.2 NE 4 7 991.6 - 2.0 Showers Mostly clear 3 - - - -
01/12:00pm 15.1 NE 5 7 991.2 F 2.0 Distant precip. Mostly cloudy 30 - - - -
01/11:30am 13.7 NW 1 4 992.4 - 2.0 - Mostly clear 10 - - - -
01/11:00am 13.2 WSW 4 6 993.0 - 2.0 - Mostly clear 10 - - - -
01/10:30am 13.0 E 1 4 993.7 - 2.0 - Mostly clear 10 - - - -
01/10:00am 13.0 N 5 8 995.2 - 1.8 - Mostly clear 10 - - - -
01/09:30am 13.0 N 6 9 996.4 - 0.8 Rain Mostly clear 10 - - - -
01/09:05am 13.3 NW 10 14 996.9 - 0.2 - Partly cloudy 9 - - - -
01/09:00am 13.3 NW 11 17 997.0 F 2.0 Rain Cloudy 3 - - - -
01/08:48am 14.0 WNW 9 16 997.0 - 1.2 Rain Mostly clear 4 - - - -
01/08:30am 14.4 NW 6 11 996.6 - 0.4 - Mostly clear 10 - - - -
01/08:06am 14.5 NNW 10 23 997.7 - 0.4 Showers Mostly clear 10 - - - -
01/08:00am 14.1 NE 5 9 997.4 - 0.4 - Mostly clear 10 - - - -
01/07:56am 14.3 NE 3 7 996.9 - 0.4 Thunder Mostly clear 10 - - - -
01/07:30am 13.5 SSW 4 11 997.1 - 0.4 - Mostly clear 10 - - - -
01/07:00am 13.6 ESE 5 6 997.5 - 0.4 - Mostly clear 10 - - - -
01/06:30am 13.4 SE 6 7 998.3 - 0.4 - Mostly clear 10 - - - -

Other Formats:

Comma delimited format used in spreadsheet applications
http://www.bom.gov.au/fwo/IDT60701/IDT60701.94975.axf

JavaScript Object Notation format (JSON) in row-major order
http://www.bom.gov.au/fwo/IDT60701/IDT60701.94975.json